createdAt,value
2023-01-08T00:01:09.662Z,59.48
2023-01-08T00:03:37.174Z,59.77
2023-01-08T00:06:05.657Z,59.83
2023-01-08T00:08:33.097Z,59.92
2023-01-08T00:11:00.198Z,59.89
2023-01-08T00:13:27.227Z,60.02
2023-01-08T00:15:54.266Z,59.91
2023-01-08T00:18:21.485Z,59.84
2023-01-08T00:20:48.542Z,59.74
2023-01-08T00:23:16.607Z,59.64
2023-01-08T00:25:43.709Z,59.60
2023-01-08T00:28:10.797Z,59.67
2023-01-08T00:30:37.868Z,59.51
2023-01-08T00:33:04.730Z,59.85
2023-01-08T00:35:31.717Z,60.03
2023-01-08T00:37:58.696Z,60.10
2023-01-08T00:40:25.743Z,60.13
2023-01-08T00:42:52.794Z,60.07
2023-01-08T00:45:19.751Z,60.11
2023-01-08T00:47:46.701Z,60.31
2023-01-08T00:50:13.807Z,60.57
2023-01-08T00:52:40.817Z,60.72
2023-01-08T00:55:08.305Z,60.93
2023-01-08T00:57:36.253Z,60.95
2023-01-08T01:00:04.435Z,61.05
2023-01-08T01:02:31.413Z,61.05
2023-01-08T01:04:58.857Z,61.06
2023-01-08T01:07:25.968Z,61.16
2023-01-08T01:09:52.978Z,61.05
2023-01-08T01:12:19.879Z,61.11
2023-01-08T01:14:46.870Z,61.16
2023-01-08T01:17:13.922Z,61.30
2023-01-08T01:19:41.494Z,61.33
2023-01-08T01:22:08.346Z,61.08
2023-01-08T01:24:35.292Z,61.01
2023-01-08T01:27:02.245Z,60.79
2023-01-08T01:29:29.307Z,60.76
2023-01-08T01:31:57.513Z,60.79
2023-01-08T01:34:24.398Z,60.47
2023-01-08T01:36:51.343Z,60.61
2023-01-08T01:39:20.065Z,60.62
2023-01-08T01:41:47.273Z,60.43
2023-01-08T01:44:39.146Z,60.46
2023-01-08T01:47:38.767Z,60.42
2023-01-08T01:50:07.649Z,60.32
2023-01-08T01:52:37.489Z,60.00
2023-01-08T01:55:04.955Z,60.08
2023-01-08T01:57:32.111Z,60.15
2023-01-08T01:59:59.574Z,60.21
2023-01-08T02:02:26.764Z,60.24
2023-01-08T02:04:53.805Z,60.19
2023-01-08T02:07:26.588Z,60.40
2023-01-08T02:10:25.067Z,60.42
2023-01-08T02:12:54.837Z,60.39
2023-01-08T02:15:29.711Z,60.55
2023-01-08T02:18:09.316Z,60.61
2023-01-08T02:20:45.424Z,60.55
2023-01-08T02:23:18.510Z,60.42
2023-01-08T02:26:13.759Z,60.40
2023-01-08T02:28:45.272Z,60.42
2023-01-08T02:31:13.343Z,60.28
2023-01-08T02:33:40.450Z,60.29
2023-01-08T02:36:13.492Z,60.56
2023-01-08T02:38:45.657Z,60.46
2023-01-08T02:41:12.616Z,60.39
2023-01-08T02:50:52.141Z,59.90
2023-01-08T02:53:20.995Z,60.04
2023-01-08T02:56:15.213Z,60.23
2023-01-08T02:58:42.268Z,60.27
2023-01-08T03:01:11.024Z,60.40
2023-01-08T03:03:39.179Z,60.55
2023-01-08T03:06:10.969Z,60.63
2023-01-08T03:08:39.557Z,60.59
2023-01-08T03:11:14.000Z,60.55
2023-01-08T03:14:23.190Z,60.62
2023-01-08T03:16:58.039Z,60.59
2023-01-08T03:19:46.793Z,60.46
2023-01-08T03:22:15.177Z,60.47
2023-01-08T03:24:43.051Z,60.42
2023-01-08T03:27:12.602Z,60.35
2023-01-08T03:29:39.539Z,60.33
2023-01-08T03:32:11.639Z,60.41
2023-01-08T03:34:39.487Z,60.37
2023-01-08T03:37:07.880Z,60.54
2023-01-08T03:39:41.775Z,60.72
2023-01-08T03:42:10.305Z,60.75
2023-01-08T03:44:37.290Z,60.82
2023-01-08T03:47:04.374Z,60.75
2023-01-08T03:49:31.405Z,60.72
2023-01-08T03:51:58.355Z,60.82
2023-01-08T03:54:27.520Z,60.82
2023-01-08T03:56:54.514Z,60.79
2023-01-08T03:59:21.735Z,60.77
2023-01-08T04:01:48.697Z,61.00
2023-01-08T04:04:15.916Z,60.99
2023-01-08T04:06:43.264Z,61.03
2023-01-08T04:09:10.386Z,61.02
2023-01-08T04:11:37.259Z,61.01
2023-01-08T04:14:04.208Z,61.00
2023-01-08T04:16:32.084Z,60.97
2023-01-08T04:18:59.058Z,61.11
2023-01-08T04:21:26.399Z,61.05
2023-01-08T04:23:54.471Z,61.23
2023-01-08T04:26:21.468Z,61.03
2023-01-08T04:28:48.339Z,60.86
2023-01-08T04:31:15.369Z,61.05
2023-01-08T04:33:42.295Z,61.18
2023-01-08T04:36:10.475Z,61.41
2023-01-08T04:38:37.427Z,61.49
2023-01-08T04:41:04.328Z,61.41
2023-01-08T04:43:31.481Z,61.50
2023-01-08T04:46:02.598Z,61.34
2023-01-08T04:48:30.160Z,61.32
2023-01-08T04:51:00.753Z,61.31
2023-01-08T04:53:28.328Z,61.30
2023-01-08T04:55:55.151Z,61.35
2023-01-08T04:58:22.178Z,61.43
2023-01-08T05:00:49.227Z,61.32
2023-01-08T05:03:16.232Z,61.53
2023-01-08T05:05:43.344Z,61.30
2023-01-08T05:08:10.309Z,61.23
2023-01-08T05:10:37.154Z,61.09
2023-01-08T05:13:04.099Z,61.36
2023-01-08T05:15:31.043Z,61.26
2023-01-08T05:18:02.211Z,61.47
2023-01-08T05:20:29.252Z,61.49
2023-01-08T05:22:56.825Z,61.60
2023-01-08T05:25:23.778Z,61.42
2023-01-08T05:27:50.846Z,61.42
2023-01-08T05:30:17.837Z,61.40
2023-01-08T05:32:44.739Z,61.58
2023-01-08T05:35:11.630Z,61.47
2023-01-08T05:37:38.858Z,61.43
2023-01-08T05:40:06.334Z,61.52
2023-01-08T05:42:36.430Z,61.64
2023-01-08T05:45:07.096Z,61.43
2023-01-08T05:47:34.661Z,61.57
2023-01-08T05:50:02.221Z,61.58
2023-01-08T05:52:29.384Z,61.83
2023-01-08T05:54:56.253Z,62.07
2023-01-08T05:57:23.195Z,62.34
2023-01-08T05:59:50.142Z,62.66
2023-01-08T06:02:17.046Z,62.87
2023-01-08T06:04:44.249Z,62.66
2023-01-08T06:07:11.192Z,62.46
2023-01-08T06:09:38.247Z,62.65
2023-01-08T06:12:05.325Z,62.77
2023-01-08T06:14:32.351Z,62.56
2023-01-08T06:16:59.207Z,62.53
2023-01-08T06:19:26.080Z,62.21
2023-01-08T06:21:53.201Z,61.77
2023-01-08T06:24:20.156Z,61.63
2023-01-08T06:26:47.127Z,61.58
2023-01-08T06:29:14.167Z,61.65
2023-01-08T06:31:41.227Z,61.63
2023-01-08T06:34:08.237Z,61.61
2023-01-08T06:36:35.259Z,61.44
2023-01-08T06:39:02.184Z,61.57
2023-01-08T06:41:29.141Z,61.68
2023-01-08T06:43:56.099Z,61.61
2023-01-08T06:46:23.079Z,61.73
2023-01-08T06:48:49.921Z,61.95
2023-01-08T06:51:16.984Z,61.77
2023-01-08T06:53:43.910Z,61.74
2023-01-08T06:56:11.158Z,61.74
2023-01-08T06:58:38.532Z,61.78
2023-01-08T07:01:05.606Z,61.78
2023-01-08T07:03:32.595Z,61.55
2023-01-08T07:06:02.787Z,61.66
2023-01-08T07:08:29.742Z,61.77
2023-01-08T07:10:56.728Z,61.87
2023-01-08T07:13:24.510Z,61.99
2023-01-08T07:15:51.538Z,61.81
2023-01-08T07:18:18.582Z,61.71
2023-01-08T07:20:45.510Z,61.73
2023-01-08T07:23:12.414Z,61.56
2023-01-08T07:25:42.371Z,61.38
2023-01-08T07:28:11.877Z,61.47
2023-01-08T07:30:38.955Z,61.53
2023-01-08T07:33:09.087Z,61.66
2023-01-08T07:35:36.074Z,61.49
2023-01-08T07:38:05.928Z,61.42
2023-01-08T07:40:33.023Z,61.44
2023-01-08T07:43:00.796Z,61.41
2023-01-08T07:45:30.771Z,61.58
2023-01-08T07:48:05.730Z,61.28
2023-01-08T07:50:37.441Z,61.35
2023-01-08T07:53:05.120Z,61.30
2023-01-08T07:55:32.070Z,61.41
2023-01-08T07:58:09.457Z,61.10
2023-01-08T08:00:47.779Z,61.27
2023-01-08T08:03:15.834Z,61.31
2023-01-08T08:05:43.021Z,61.32
2023-01-08T08:08:11.107Z,61.41
2023-01-08T08:10:41.614Z,61.41
2023-01-08T08:13:13.419Z,61.44
2023-01-08T08:15:43.581Z,61.38
2023-01-08T08:18:14.443Z,61.34
2023-01-08T08:20:41.494Z,60.72
2023-01-08T08:23:10.056Z,60.36
2023-01-08T08:25:40.293Z,60.52
2023-01-08T08:28:08.099Z,60.51
2023-01-08T08:30:35.875Z,60.49
2023-01-08T08:33:05.297Z,60.27
2023-01-08T08:35:33.135Z,60.30
2023-01-08T08:38:00.194Z,60.34
2023-01-08T08:40:27.460Z,60.46
2023-01-08T08:43:01.649Z,60.38
2023-01-08T08:45:28.718Z,60.55
2023-01-08T08:47:55.654Z,60.73
2023-01-08T08:50:22.877Z,60.80
2023-01-08T08:52:49.874Z,60.69
2023-01-08T08:55:17.753Z,60.61
2023-01-08T08:57:49.462Z,60.53
2023-01-08T09:00:17.042Z,60.66
2023-01-08T09:02:44.206Z,60.71
2023-01-08T09:05:11.849Z,60.67
2023-01-08T09:07:41.316Z,60.90
2023-01-08T09:10:08.966Z,60.77
2023-01-08T09:12:35.907Z,60.55
2023-01-08T09:15:02.825Z,60.42
2023-01-08T09:17:29.793Z,60.49
2023-01-08T09:19:56.766Z,60.59
2023-01-08T09:22:23.727Z,60.41
2023-01-08T09:24:50.628Z,60.29
2023-01-08T09:27:17.833Z,60.34
2023-01-08T09:29:44.997Z,60.26
2023-01-08T09:32:16.274Z,60.29
2023-01-08T09:34:43.450Z,60.15
2023-01-08T09:37:10.446Z,59.80
2023-01-08T09:39:37.395Z,59.89
2023-01-08T09:42:09.588Z,59.68
2023-01-08T09:44:39.158Z,59.11
2023-01-08T09:47:07.530Z,58.59
2023-01-08T09:49:44.622Z,58.62
2023-01-08T09:52:16.909Z,58.67
2023-01-08T09:54:43.987Z,59.10
2023-01-08T09:57:16.369Z,59.18
2023-01-08T09:59:45.446Z,59.31
2023-01-08T10:02:17.879Z,59.41
2023-01-08T10:04:46.673Z,59.23
2023-01-08T10:07:28.633Z,58.90
2023-01-08T10:09:55.906Z,58.93
2023-01-08T10:12:35.639Z,58.97
2023-01-08T10:18:06.336Z,59.23
2023-01-08T10:20:33.975Z,59.42
2023-01-08T10:23:12.324Z,59.22
2023-01-08T10:26:02.069Z,59.31
2023-01-08T10:28:32.033Z,59.27
2023-01-08T10:31:08.363Z,59.13
2023-01-08T10:33:41.255Z,59.26
2023-01-08T10:36:09.312Z,59.43
2023-01-08T10:38:38.407Z,59.47
2023-01-08T10:41:06.320Z,59.44
2023-01-08T10:43:41.843Z,59.36
2023-01-08T10:46:16.053Z,59.31
2023-01-08T10:48:47.928Z,59.42
2023-01-08T10:51:25.845Z,59.15
2023-01-08T10:53:53.909Z,59.22
2023-01-08T10:56:22.405Z,59.13
2023-01-08T10:58:49.539Z,58.99
2023-01-08T11:01:19.618Z,58.90
2023-01-08T11:04:01.312Z,58.77
2023-01-08T11:06:34.202Z,58.94
2023-01-08T11:09:02.477Z,59.27
2023-01-08T11:11:33.660Z,59.31
2023-01-08T11:14:02.651Z,59.31
2023-01-08T11:16:35.223Z,59.19
2023-01-08T11:19:02.220Z,58.75
2023-01-08T11:21:33.754Z,58.83
2023-01-08T11:24:12.945Z,59.10
2023-01-08T11:26:40.940Z,59.14
2023-01-08T11:29:52.142Z,59.20
2023-01-08T11:32:40.473Z,59.19
2023-01-08T11:35:26.865Z,59.12
2023-01-08T11:37:58.438Z,59.08
2023-01-08T11:40:47.835Z,59.00
2023-01-08T11:43:18.881Z,58.66
2023-01-08T11:45:51.978Z,58.36
2023-01-08T11:48:38.033Z,58.26
2023-01-08T11:51:28.735Z,58.11
2023-01-08T11:54:34.969Z,57.92
2023-01-08T11:57:14.015Z,57.97
2023-01-08T11:59:59.296Z,58.01
2023-01-08T12:02:47.569Z,58.12
2023-01-08T12:05:31.166Z,58.35
2023-01-08T12:08:08.157Z,58.29
2023-01-08T12:10:44.554Z,58.43
2023-01-08T12:13:33.452Z,58.35
2023-01-08T12:16:20.476Z,58.34
2023-01-08T12:19:00.255Z,58.42
2023-01-08T12:21:34.082Z,58.39
2023-01-08T12:24:13.128Z,58.36
2023-01-08T12:26:59.791Z,58.33
2023-01-08T12:29:26.840Z,58.55
2023-01-08T12:32:32.859Z,58.70
2023-01-08T12:35:16.364Z,58.83
2023-01-08T12:37:52.154Z,58.42
2023-01-08T12:40:36.274Z,58.56
2023-01-08T12:43:07.929Z,58.43
2023-01-08T12:45:43.790Z,58.10
2023-01-08T12:48:24.961Z,58.12
2023-01-08T12:51:07.621Z,58.00
2023-01-08T12:54:04.761Z,58.20
2023-01-08T12:56:42.269Z,58.16
2023-01-08T12:59:21.775Z,58.11
2023-01-08T13:02:04.697Z,58.30
2023-01-08T13:04:45.059Z,58.36
2023-01-08T13:07:31.295Z,58.38
2023-01-08T13:10:06.908Z,58.59
2023-01-08T13:12:40.435Z,58.46
2023-01-08T13:15:07.959Z,58.52
2023-01-08T13:17:35.817Z,58.34
2023-01-08T13:20:08.720Z,58.45
2023-01-08T13:22:38.705Z,58.52
2023-01-08T13:25:27.940Z,58.26
2023-01-08T13:27:55.177Z,58.12
2023-01-08T13:30:44.196Z,57.96
2023-01-08T13:33:43.489Z,58.09
2023-01-08T13:36:13.667Z,57.77
2023-01-08T13:38:41.447Z,57.88
2023-01-08T13:41:34.966Z,57.86
2023-01-08T13:44:26.040Z,57.69
2023-01-08T13:47:17.375Z,57.65
2023-01-08T13:49:45.322Z,57.41
2023-01-08T13:52:33.035Z,57.15
2023-01-08T13:55:15.173Z,56.97
2023-01-08T13:57:48.543Z,56.86
2023-01-08T14:00:42.735Z,56.76
2023-01-08T14:06:23.225Z,56.80
2023-01-08T14:08:56.714Z,56.79
2023-01-08T14:11:44.801Z,56.43
2023-01-08T14:14:20.600Z,56.35
2023-01-08T14:16:48.451Z,56.30
2023-01-08T14:19:21.422Z,56.07
2023-01-08T14:21:53.019Z,55.73
2023-01-08T14:24:20.225Z,55.60
2023-01-08T14:26:54.109Z,55.66
2023-01-08T14:29:22.952Z,55.56
2023-01-08T14:31:54.201Z,55.65
2023-01-08T14:34:22.258Z,55.56
2023-01-08T14:36:50.856Z,55.32
2023-01-08T14:39:20.787Z,55.07
2023-01-08T14:42:06.479Z,55.00
2023-01-08T14:44:40.390Z,54.77
2023-01-08T14:47:15.413Z,54.61
2023-01-08T14:49:44.866Z,54.58
2023-01-08T14:52:13.163Z,54.83
2023-01-08T14:54:40.074Z,54.80
2023-01-08T14:57:06.938Z,54.85
2023-01-08T14:59:37.592Z,54.78
2023-01-08T15:02:05.256Z,54.84
2023-01-08T15:04:32.341Z,54.87
2023-01-08T15:07:16.807Z,54.79
2023-01-08T15:09:44.196Z,54.89
2023-01-08T15:12:26.228Z,54.92
2023-01-08T15:14:55.359Z,55.07
2023-01-08T15:17:26.773Z,55.06
2023-01-08T15:19:55.675Z,55.14
2023-01-08T15:22:32.841Z,55.34
2023-01-08T15:25:01.189Z,55.28
2023-01-08T15:27:28.248Z,55.43
2023-01-08T15:30:03.840Z,55.49
2023-01-08T15:32:34.193Z,55.41
2023-01-08T15:35:01.337Z,55.26
2023-01-08T15:37:28.429Z,55.12
2023-01-08T15:39:55.410Z,55.00
2023-01-08T15:42:50.362Z,55.23
2023-01-08T15:45:18.230Z,55.09
2023-01-08T15:47:45.675Z,55.13
2023-01-08T15:50:16.807Z,55.30
2023-01-08T15:52:43.893Z,55.37
2023-01-08T15:55:18.585Z,55.40
2023-01-08T15:57:46.876Z,55.35
2023-01-08T16:00:17.867Z,55.43
2023-01-08T16:05:29.722Z,55.69
2023-01-08T16:07:59.916Z,55.66
2023-01-08T16:10:30.375Z,56.01
2023-01-08T16:12:57.438Z,55.96
2023-01-08T16:15:24.524Z,55.85
2023-01-08T16:17:54.937Z,55.94
2023-01-08T16:20:24.827Z,56.00
2023-01-08T16:22:52.042Z,55.92
2023-01-08T16:25:20.680Z,55.80
2023-01-08T16:30:34.870Z,55.68
2023-01-08T16:33:02.121Z,55.79
2023-01-08T16:35:30.075Z,55.62
2023-01-08T16:37:57.067Z,55.71
2023-01-08T16:40:29.191Z,55.54
2023-01-08T16:43:00.015Z,55.67
2023-01-08T16:45:26.965Z,55.48
2023-01-08T16:47:54.001Z,55.43
2023-01-08T16:50:20.992Z,55.27
2023-01-08T16:52:47.845Z,55.14
2023-01-08T16:55:14.804Z,55.25
2023-01-08T16:57:41.923Z,55.31
2023-01-08T17:00:09.679Z,54.98
2023-01-08T17:02:36.837Z,54.91
2023-01-08T17:05:03.932Z,54.67
2023-01-08T17:07:30.873Z,55.07
2023-01-08T17:09:57.880Z,54.85
2023-01-08T17:12:24.845Z,54.79
2023-01-08T17:14:54.748Z,54.92
2023-01-08T17:17:21.852Z,54.83
2023-01-08T17:19:48.837Z,54.75
2023-01-08T17:22:15.901Z,54.73
2023-01-08T17:24:43.597Z,54.93
2023-01-08T17:27:12.017Z,54.93
2023-01-08T17:29:39.193Z,54.87
2023-01-08T17:32:06.226Z,54.94
2023-01-08T17:34:33.356Z,54.96
2023-01-08T17:37:00.322Z,54.99
2023-01-08T17:39:27.294Z,54.93
2023-01-08T17:42:13.275Z,54.93
2023-01-08T17:44:40.294Z,55.08
2023-01-08T17:47:07.363Z,55.19
2023-01-08T17:49:34.341Z,55.20
2023-01-08T17:52:01.311Z,55.36
2023-01-08T17:54:28.929Z,55.21
2023-01-08T17:56:55.975Z,55.40
2023-01-08T17:59:24.271Z,55.41
2023-01-08T18:01:52.023Z,55.46
2023-01-08T18:04:19.247Z,55.53
2023-01-08T18:06:46.097Z,55.62
2023-01-08T18:09:13.307Z,55.62
2023-01-08T18:11:40.984Z,55.65
2023-01-08T18:14:10.285Z,55.59
2023-01-08T18:16:39.613Z,55.76
2023-01-08T18:19:06.753Z,55.86
2023-01-08T18:21:33.646Z,55.73
2023-01-08T18:24:01.097Z,55.77
2023-01-08T18:26:29.216Z,55.75
2023-01-08T18:28:59.381Z,55.87
2023-01-08T18:31:26.316Z,55.84
2023-01-08T18:33:53.219Z,55.73
2023-01-08T18:36:20.253Z,55.97
2023-01-08T18:38:48.578Z,56.05
2023-01-08T18:41:35.767Z,56.17
2023-01-08T18:44:04.427Z,56.37
2023-01-08T18:46:31.442Z,56.36
2023-01-08T18:48:58.719Z,56.48
2023-01-08T18:51:25.692Z,56.45
2023-01-08T18:53:53.296Z,56.53
2023-01-08T18:56:26.787Z,56.57
2023-01-08T18:58:53.684Z,56.81
2023-01-08T19:01:20.831Z,56.88
2023-01-08T19:03:47.956Z,56.78
2023-01-08T19:06:17.752Z,56.95
2023-01-08T19:08:45.014Z,56.99
2023-01-08T19:11:12.393Z,57.13
2023-01-08T19:13:39.573Z,56.99
2023-01-08T19:16:07.991Z,57.01
2023-01-08T19:18:34.941Z,57.02
2023-01-08T19:21:01.793Z,57.08
2023-01-08T19:23:28.765Z,57.18
2023-01-08T19:25:55.675Z,57.20
2023-01-08T19:28:22.650Z,57.36
2023-01-08T19:30:56.546Z,57.34
2023-01-08T19:33:23.660Z,57.20
2023-01-08T19:35:50.857Z,57.46
2023-01-08T19:38:18.311Z,57.36
2023-01-08T19:40:45.279Z,57.39
2023-01-08T19:43:31.480Z,57.32
2023-01-08T19:46:05.321Z,57.36
2023-01-08T19:48:32.783Z,57.39
2023-01-08T19:51:00.463Z,57.41
2023-01-08T19:53:27.553Z,57.33
2023-01-08T19:55:54.533Z,57.25
2023-01-08T19:58:23.532Z,57.28
2023-01-08T20:00:51.969Z,57.25
2023-01-08T20:03:23.733Z,57.11
2023-01-08T20:05:50.645Z,57.00
2023-01-08T20:08:17.942Z,56.94
2023-01-08T20:10:44.861Z,56.77
2023-01-08T20:13:11.838Z,56.81
2023-01-08T20:15:38.721Z,56.74
2023-01-08T20:18:06.168Z,56.82
2023-01-08T20:20:33.116Z,56.91
2023-01-08T20:23:00.112Z,56.88
2023-01-08T20:25:27.024Z,57.04
2023-01-08T20:27:53.989Z,57.12
2023-01-08T20:30:20.893Z,57.19
2023-01-08T20:32:47.895Z,57.36
2023-01-08T20:35:14.945Z,57.18
2023-01-08T20:37:42.310Z,57.15
2023-01-08T20:40:09.811Z,57.23
2023-01-08T20:42:36.831Z,57.22
2023-01-08T20:45:04.059Z,56.94
2023-01-08T20:47:31.661Z,56.94
2023-01-08T20:49:58.611Z,57.27
2023-01-08T20:52:25.563Z,57.27
2023-01-08T20:54:53.184Z,57.39
2023-01-08T20:57:20.186Z,57.31
2023-01-08T20:59:47.134Z,57.22
2023-01-08T21:02:14.086Z,57.26
2023-01-08T21:04:41.860Z,57.17
2023-01-08T21:07:08.914Z,57.17
2023-01-08T21:09:35.825Z,57.31
2023-01-08T21:15:45.035Z,56.55
2023-01-08T21:18:16.246Z,56.52
2023-01-08T21:21:09.910Z,56.63
2023-01-08T21:24:04.523Z,56.80
2023-01-08T21:29:29.017Z,56.57
2023-01-08T21:31:56.094Z,56.49
2023-01-08T21:34:23.012Z,56.58
2023-01-08T21:36:49.963Z,56.51
2023-01-08T21:39:16.927Z,56.48
2023-01-08T21:42:02.713Z,56.40
2023-01-08T21:44:48.057Z,56.49
2023-01-08T21:47:16.925Z,56.57
2023-01-08T21:49:44.571Z,56.61
2023-01-08T21:52:30.252Z,56.87
2023-01-08T21:54:58.387Z,57.03
2023-01-08T21:57:27.944Z,56.83
2023-01-08T21:59:55.277Z,57.11
2023-01-08T22:02:23.296Z,57.05
2023-01-08T22:04:50.414Z,57.14
2023-01-08T22:07:17.396Z,57.07
2023-01-08T22:09:44.253Z,57.01
2023-01-08T22:12:11.052Z,57.09
2023-01-08T22:14:38.131Z,57.07
2023-01-08T22:17:08.508Z,57.04
2023-01-08T22:19:38.078Z,57.22
2023-01-08T22:22:05.025Z,57.38
2023-01-08T22:24:31.958Z,57.42
2023-01-08T22:26:58.851Z,57.68
2023-01-08T22:29:25.753Z,57.79
2023-01-08T22:31:52.675Z,57.97
2023-01-08T22:34:19.688Z,58.25
2023-01-08T22:36:47.068Z,58.44
2023-01-08T22:39:13.933Z,58.54
2023-01-08T22:41:41.369Z,58.57
2023-01-08T22:44:11.291Z,58.69
2023-01-08T22:46:38.153Z,58.61
2023-01-08T22:49:05.110Z,58.60
2023-01-08T22:51:32.254Z,58.83
2023-01-08T22:53:59.350Z,58.62
2023-01-08T22:56:26.775Z,58.66
2023-01-08T22:58:53.740Z,58.74
2023-01-08T23:01:25.367Z,58.76
2023-01-08T23:03:54.098Z,58.83
2023-01-08T23:06:21.507Z,58.91
2023-01-08T23:08:48.707Z,58.81
2023-01-08T23:11:17.573Z,58.83
2023-01-08T23:13:44.506Z,58.81
2023-01-08T23:16:13.507Z,58.77
2023-01-08T23:18:40.557Z,58.36
2023-01-08T23:21:09.729Z,58.33
2023-01-08T23:23:36.880Z,58.14
2023-01-08T23:26:08.637Z,58.19
2023-01-08T23:28:35.599Z,58.27
2023-01-08T23:31:07.293Z,58.13
2023-01-08T23:33:34.206Z,58.24
2023-01-08T23:36:01.353Z,58.13
2023-01-08T23:41:56.872Z,57.81
2023-01-08T23:44:23.927Z,57.78
2023-01-08T23:46:50.812Z,57.79
2023-01-08T23:49:17.707Z,57.94
2023-01-08T23:51:44.677Z,57.82
2023-01-08T23:54:11.770Z,57.73
2023-01-08T23:56:39.266Z,57.60
2023-01-08T23:59:06.362Z,57.63
